Time;durP1;ratioP1;P1;durP2;ratioP2;P2;SDS_P1;SDS_P2;PMS_P1;PMS_P2;Temp;Humidity;BMP_temperature;BMP_pressure;BME280_temperature;BME280_humidity;BME280_pressure;Samples;Min_cycle;Max_cycle;Signal;HPM_P1;HPM_P2
2023/12/28 00:01:45;;;;;;;17.70;11.55;;;;;;;4.65;100.00;101195.94;5609457;31;34106;-71
2023/12/28 00:04:49;;;;;;;16.45;11.38;;;;;;;4.65;100.00;101201.19;5609102;31;35224;-71
2023/12/28 00:07:57;;;;;;;17.55;11.40;;;;;;;4.56;100.00;101201.88;5609073;31;34064;-72
2023/12/28 00:11:04;;;;;;;17.00;11.43;;;;;;;4.50;100.00;101191.81;5608980;31;34970;-71
2023/12/28 00:14:07;;;;;;;18.15;11.45;;;;;;;4.46;100.00;101198.22;5608350;31;34118;-71
2023/12/28 00:17:11;;;;;;;17.37;11.93;;;;;;;4.43;100.00;101197.59;5609106;31;34019;-72
2023/12/28 00:20:16;;;;;;;17.20;11.52;;;;;;;4.35;100.00;101199.00;5609347;31;33934;-72
2023/12/28 00:23:20;;;;;;;18.58;11.45;;;;;;;4.25;100.00;101212.87;5608612;31;34022;-71
2023/12/28 00:26:24;;;;;;;16.92;11.68;;;;;;;4.13;100.00;101213.69;5609127;31;34395;-72
2023/12/28 00:29:33;;;;;;;17.60;11.73;;;;;;;4.04;100.00;101224.84;5608766;31;34765;-72
2023/12/28 00:32:37;;;;;;;18.55;12.18;;;;;;;3.98;100.00;101220.84;5608804;31;35040;-72
2023/12/28 00:35:40;;;;;;;20.05;12.48;;;;;;;3.88;100.00;101217.16;5608849;31;34329;-72
2023/12/28 00:38:45;;;;;;;17.58;12.32;;;;;;;3.79;100.00;101218.66;5608793;31;34127;-72
2023/12/28 00:41:49;;;;;;;18.50;12.45;;;;;;;3.67;100.00;101216.87;5608854;31;34098;-71
2023/12/28 00:44:54;;;;;;;21.75;13.45;;;;;;;3.59;100.00;101213.03;5608080;31;34652;-72
2023/12/28 00:47:58;;;;;;;20.12;13.27;;;;;;;3.50;100.00;101217.97;5608496;31;34096;-72
2023/12/28 00:51:02;;;;;;;21.05;13.73;;;;;;;3.47;100.00;101226.06;5609090;31;32697;-72
2023/12/28 00:54:07;;;;;;;24.37;17.12;;;;;;;3.40;100.00;101221.31;5607803;31;34105;-71
2023/12/28 00:57:10;;;;;;;24.42;16.30;;;;;;;3.33;100.00;101217.44;5608462;31;35044;-72
2023/12/28 01:00:14;;;;;;;21.70;15.15;;;;;;;3.24;100.00;101226.75;5608483;31;34150;-71
2023/12/28 01:03:17;;;;;;;26.48;17.55;;;;;;;3.16;100.00;101230.78;5607324;31;34879;-72
2023/12/28 01:06:22;;;;;;;22.95;15.15;;;;;;;3.11;100.00;101225.84;5608549;31;33981;-71
2023/12/28 01:09:26;;;;;;;24.48;16.65;;;;;;;3.06;100.00;101227.91;5608483;31;34217;-70
2023/12/28 01:12:39;;;;;;;30.60;19.20;;;;;;;2.99;100.00;101231.88;5608112;31;33630;-72
2023/12/28 01:15:45;;;;;;;28.77;19.15;;;;;;;2.93;100.00;101227.88;5608520;31;33940;-71
2023/12/28 01:18:57;;;;;;;32.50;20.83;;;;;;;2.83;100.00;101226.78;5608460;31;33908;-71
2023/12/28 01:22:00;;;;;;;34.25;21.73;;;;;;;2.74;100.00;101223.91;5608679;31;34733;-71
2023/12/28 01:25:05;;;;;;;32.10;20.58;;;;;;;2.67;100.00;101238.31;5608473;31;34888;-72
2023/12/28 01:28:11;;;;;;;31.50;21.12;;;;;;;2.63;100.00;101228.03;5608200;31;34841;-71
2023/12/28 01:31:14;;;;;;;33.05;21.45;;;;;;;2.60;100.00;101227.41;5608070;31;34748;-71
2023/12/28 01:34:19;;;;;;;32.30;20.77;;;;;;;2.55;100.00;101225.06;5607417;31;34747;-71
2023/12/28 01:37:23;;;;;;;37.10;23.10;;;;;;;2.45;100.00;101213.47;5608133;31;34039;-72
2023/12/28 01:40:29;;;;;;;34.22;21.37;;;;;;;2.42;100.00;101218.06;5607938;31;34670;-71
2023/12/28 01:43:32;;;;;;;37.70;21.35;;;;;;;2.38;100.00;101213.94;5607955;31;34041;-70
2023/12/28 01:46:35;;;;;;;34.45;20.60;;;;;;;2.39;100.00;101202.53;5607960;31;34617;-71
2023/12/28 01:49:42;;;;;;;32.25;20.60;;;;;;;2.36;100.00;101198.34;5607999;31;34338;-71
2023/12/28 01:52:50;;;;;;;31.55;19.62;;;;;;;2.32;100.00;101193.41;5607410;31;34361;-71
2023/12/28 01:56:05;;;;;;;30.65;20.48;;;;;;;2.30;100.00;101195.25;5595413;31;33753;-71
2023/12/28 01:59:08;;;;;;;24.45;16.75;;;;;;;2.26;100.00;101196.37;5607724;31;34440;-71
2023/12/28 02:02:12;;;;;;;22.65;13.35;;;;;;;2.32;100.00;101190.78;5606872;31;34134;-70
2023/12/28 02:05:16;;;;;;;21.62;13.55;;;;;;;2.66;100.00;101179.03;5607369;31;34016;-71
2023/12/28 02:08:21;;;;;;;18.20;12.82;;;;;;;2.80;100.00;101184.22;5607710;31;34096;-71
2023/12/28 02:11:24;;;;;;;21.52;13.48;;;;;;;3.11;100.00;101181.28;5607357;31;34718;-71
2023/12/28 02:14:27;;;;;;;20.98;13.62;;;;;;;3.33;100.00;101178.94;5607568;31;34073;-72
2023/12/28 02:18:00;;;;;;;19.15;12.73;;;;;;;3.56;100.00;101177.38;5609876;31;34022;-72
2023/12/28 02:21:06;;;;;;;18.45;12.35;;;;;;;3.65;100.00;101176.75;5609964;31;34525;-72
2023/12/28 02:24:13;;;;;;;18.52;12.70;;;;;;;3.56;100.00;101171.28;5609465;31;34111;-70
2023/12/28 02:27:23;;;;;;;21.23;13.40;;;;;;;3.71;100.00;101171.09;5609988;31;34387;-71
2023/12/28 02:30:29;;;;;;;22.33;12.77;;;;;;;3.86;100.00;101162.19;5609075;31;34435;-71
2023/12/28 02:33:48;;;;;;;19.08;12.73;;;;;;;3.73;100.00;101160.47;5609878;31;33973;-71
2023/12/28 02:36:54;;;;;;;18.50;12.50;;;;;;;3.78;100.00;101161.84;5609862;31;34678;-71
2023/12/28 02:40:01;;;;;;;19.85;12.52;;;;;;;3.67;100.00;101153.88;5609312;31;34081;-71
2023/12/28 02:43:06;;;;;;;17.92;12.35;;;;;;;3.81;100.00;101148.53;5596068;31;34789;-71
2023/12/28 02:46:11;;;;;;;20.67;13.27;;;;;;;3.69;100.00;101149.34;5610034;31;34744;-71
2023/12/28 02:49:16;;;;;;;18.05;12.55;;;;;;;3.59;100.00;101145.69;5608903;31;34099;-71
2023/12/28 02:52:29;;;;;;;21.12;13.43;;;;;;;3.48;100.00;101142.97;5609955;31;34031;-72
2023/12/28 02:55:33;;;;;;;23.05;16.05;;;;;;;3.35;100.00;101145.56;5609677;31;34687;-71
2023/12/28 02:58:36;;;;;;;24.98;16.27;;;;;;;3.27;100.00;101140.00;5609544;31;34814;-71
2023/12/28 03:01:46;;;;;;;25.15;17.58;;;;;;;3.11;100.00;101144.56;5609470;31;34395;-71
2023/12/28 03:04:49;;;;;;;;;;;;;;;2.98;100.00;101143.72;5609821;31;34052;-70
2023/12/28 03:07:52;;;;;;;26.90;19.27;;;;;;;2.86;100.00;101145.34;5609576;31;34492;-71
2023/12/28 03:11:03;;;;;;;25.83;17.60;;;;;;;2.72;100.00;101137.53;5609632;31;34029;-72
2023/12/28 03:14:07;;;;;;;25.33;16.62;;;;;;;2.60;100.00;101136.56;5609421;31;34063;-71
2023/12/28 03:17:12;;;;;;;24.58;15.98;;;;;;;2.53;100.00;101137.88;5609311;31;33495;-71
2023/12/28 03:20:16;;;;;;;29.12;18.83;;;;;;;2.45;100.00;101127.06;5609354;31;34115;-71
2023/12/28 03:23:23;;;;;;;41.10;25.35;;;;;;;2.38;100.00;101135.37;5609027;31;34047;-71
2023/12/28 03:26:28;;;;;;;39.40;25.90;;;;;;;2.24;100.00;101131.03;5608567;31;34739;-70
2023/12/28 03:29:34;;;;;;;49.92;27.95;;;;;;;2.15;100.00;101123.75;5609362;31;34178;-70
2023/12/28 03:32:44;;;;;;;47.70;28.83;;;;;;;2.06;100.00;101119.94;5596453;31;35010;-70
2023/12/28 03:35:47;;;;;;;59.28;35.00;;;;;;;1.98;100.00;101116.97;5608785;31;35462;-71
2023/12/28 03:38:50;;;;;;;62.10;34.50;;;;;;;1.91;100.00;101117.44;5609229;31;34037;-71
2023/12/28 03:41:59;;;;;;;57.08;34.50;;;;;;;1.85;100.00;101118.63;5608487;31;34344;-70
2023/12/28 03:45:05;;;;;;;56.08;34.03;;;;;;;1.80;100.00;101120.69;5609197;31;33468;-71
2023/12/28 03:48:08;;;;;;;54.58;32.60;;;;;;;1.78;100.00;101108.66;5609301;31;34310;-71
2023/12/28 03:51:24;;;;;;;52.78;31.85;;;;;;;1.69;100.00;101108.25;5609220;31;35548;-70
2023/12/28 03:54:29;;;;;;;54.13;31.87;;;;;;;1.63;100.00;101107.81;5608319;31;34087;-70
2023/12/28 03:57:32;;;;;;;54.13;32.58;;;;;;;1.59;100.00;101093.25;5609057;31;33937;-71
2023/12/28 04:00:36;;;;;;;56.47;33.17;;;;;;;1.55;100.00;101089.16;5608926;31;34164;-71
2023/12/28 04:03:39;;;;;;;55.40;33.53;;;;;;;1.51;100.00;101091.09;5608098;31;34228;-71
2023/12/28 04:06:43;;;;;;;51.37;31.62;;;;;;;1.49;100.00;101089.50;5608933;31;34744;-71
2023/12/28 04:09:47;;;;;;;50.65;31.92;;;;;;;1.45;100.00;101088.84;5608564;31;34442;-70
2023/12/28 04:12:55;;;;;;;45.65;28.83;;;;;;;1.41;100.00;101089.94;5609037;31;34050;-71
2023/12/28 04:15:58;;;;;;;46.67;28.27;;;;;;;1.39;100.00;101096.22;5609033;31;35258;-71
2023/12/28 04:19:02;;;;;;;46.85;27.42;;;;;;;1.33;100.00;101093.97;5608719;31;34734;-72
2023/12/28 04:22:05;;;;;;;50.85;29.60;;;;;;;1.30;100.00;101079.31;5608060;31;34264;-71
2023/12/28 04:25:07;;;;;;;47.03;28.33;;;;;;;1.28;100.00;101075.94;5608882;31;34026;-71
2023/12/28 04:28:10;;;;;;;46.47;29.20;;;;;;;1.22;100.00;101078.91;5609018;31;34034;-71
2023/12/28 04:31:14;;;;;;;43.60;24.42;;;;;;;1.17;100.00;101075.72;5608828;31;34055;-71
2023/12/28 04:34:19;;;;;;;30.27;20.33;;;;;;;1.13;100.00;101069.84;5607949;31;35723;-71
2023/12/28 04:37:22;;;;;;;37.13;22.87;;;;;;;1.11;100.00;101073.50;5608946;31;34724;-71
2023/12/28 04:40:26;;;;;;;35.00;23.33;;;;;;;1.08;100.00;101066.66;5608538;31;34752;-72
2023/12/28 04:43:28;;;;;;;31.67;21.30;;;;;;;1.04;100.00;101064.34;5607989;31;34704;-71
2023/12/28 04:46:32;;;;;;;35.38;23.85;;;;;;;1.02;100.00;101063.56;5608706;31;34687;-71
2023/12/28 04:49:40;;;;;;;46.05;24.65;;;;;;;0.97;100.00;101052.56;5609153;31;33592;-72
2023/12/28 04:52:43;;;;;;;37.33;21.98;;;;;;;0.93;100.00;101049.28;5607965;31;35256;-71
2023/12/28 04:55:47;;;;;;;33.60;20.88;;;;;;;0.90;100.00;101056.47;5608652;31;34204;-71
2023/12/28 04:58:52;;;;;;;28.25;18.60;;;;;;;0.86;100.00;101061.88;5607848;31;34309;-71
2023/12/28 05:02:00;;;;;;;29.20;17.75;;;;;;;0.94;100.00;101056.19;5608453;31;34104;-71
2023/12/28 05:05:12;;;;;;;33.58;18.90;;;;;;;0.94;100.00;101061.41;5608363;31;35746;-72
2023/12/28 05:08:17;;;;;;;38.95;24.58;;;;;;;0.96;100.00;101074.41;5608418;31;34020;-71
2023/12/28 05:11:34;;;;;;;37.28;22.55;;;;;;;0.88;100.00;101073.06;5608475;31;34848;-71
2023/12/28 05:14:37;;;;;;;39.97;22.83;;;;;;;0.81;100.00;101069.16;5607630;31;34157;-72
2023/12/28 05:17:41;;;;;;;31.00;21.27;;;;;;;0.77;100.00;101059.81;5608248;31;34128;-72
2023/12/28 05:20:44;;;;;;;35.20;22.58;;;;;;;0.76;100.00;101065.09;5608338;31;33992;-71
2023/12/28 05:23:48;;;;;;;32.75;21.62;;;;;;;0.73;100.00;101073.09;5607788;31;34627;-70
2023/12/28 05:26:55;;;;;;;33.38;21.33;;;;;;;0.69;100.00;101079.44;5608132;31;34156;-71
2023/12/28 05:30:02;;;;;;;31.52;21.92;;;;;;;0.62;100.00;101070.28;5608141;31;34243;-71
2023/12/28 05:33:12;;;;;;;32.55;20.48;;;;;;;0.60;100.00;101080.81;5608018;31;34387;-73
2023/12/28 05:36:16;;;;;;;32.35;21.87;;;;;;;0.58;100.00;101079.22;5608363;31;34414;-71
2023/12/28 05:39:22;;;;;;;33.50;21.83;;;;;;;0.56;100.00;101068.03;5608088;31;34750;-72
2023/12/28 05:42:33;;;;;;;33.47;22.02;;;;;;;0.54;100.00;101062.03;5607360;31;34023;-71
2023/12/28 05:45:37;;;;;;;30.30;21.60;;;;;;;0.51;100.00;101068.28;5594054;31;34008;-71
2023/12/28 05:48:41;;;;;;;33.65;21.42;;;;;;;0.46;100.00;101072.06;5607145;31;34636;-71
2023/12/28 05:51:45;;;;;;;33.97;22.15;;;;;;;0.45;100.00;101081.66;5609434;31;33925;-71
2023/12/28 05:54:50;;;;;;;34.47;22.30;;;;;;;0.44;100.00;101077.37;5610331;31;34704;-71
2023/12/28 05:57:55;;;;;;;36.97;23.15;;;;;;;0.39;100.00;101082.00;5610209;31;34327;-71
2023/12/28 06:01:04;;;;;;;33.47;20.35;;;;;;;0.40;100.00;101076.72;5609436;31;34702;-72
2023/12/28 06:04:08;;;;;;;34.75;21.85;;;;;;;0.40;100.00;101078.47;5610004;31;34077;-72
2023/12/28 06:07:11;;;;;;;32.08;22.02;;;;;;;0.38;100.00;101086.41;5610062;31;34077;-71
2023/12/28 06:10:15;;;;;;;33.95;21.27;;;;;;;0.38;100.00;101077.75;5609572;31;34060;-71
2023/12/28 06:13:19;;;;;;;36.40;23.42;;;;;;;0.32;100.00;101073.69;5610125;31;35115;-71
2023/12/28 06:16:26;;;;;;;32.50;22.58;;;;;;;0.32;100.00;101084.13;5609884;31;34812;-72
2023/12/28 06:19:30;;;;;;;37.55;23.67;;;;;;;0.27;100.00;101082.69;5610290;31;33862;-72
2023/12/28 06:22:38;;;;;;;34.83;24.08;;;;;;;0.27;100.00;101083.56;5609205;31;34958;-72
2023/12/28 06:25:42;;;;;;;35.75;22.33;;;;;;;0.27;100.00;101085.31;5610250;31;33758;-73
2023/12/28 06:28:46;;;;;;;34.08;22.67;;;;;;;0.28;100.00;101085.25;5609555;31;34095;-72
2023/12/28 06:31:49;;;;;;;37.65;23.90;;;;;;;0.24;100.00;101083.69;5610064;31;34225;-72
2023/12/28 06:34:52;;;;;;;39.67;25.37;;;;;;;0.23;100.00;101089.88;5609867;31;34808;-72
2023/12/28 06:37:57;;;;;;;38.95;25.95;;;;;;;0.32;100.00;101091.13;5609652;31;34615;-72
2023/12/28 06:41:10;;;;;;;41.25;26.90;;;;;;;0.26;100.00;101091.44;5609653;31;34032;-72
2023/12/28 06:44:14;;;;;;;47.40;28.65;;;;;;;0.23;100.00;101095.09;5609853;31;34077;-72
2023/12/28 06:47:18;;;;;;;41.28;27.52;;;;;;;0.35;100.00;101102.22;5609523;31;34024;-72
2023/12/28 06:50:21;;;;;;;40.12;25.95;;;;;;;0.50;100.00;101108.34;5609656;31;34045;-73
2023/12/28 06:53:24;;;;;;;38.97;25.92;;;;;;;0.40;100.00;101123.69;5609562;31;34875;-72
2023/12/28 06:56:28;;;;;;;41.42;27.13;;;;;;;0.44;100.00;101113.91;5608837;31;34129;-73
2023/12/28 06:59:33;;;;;;;38.00;25.90;;;;;;;0.47;100.00;101118.13;5609424;31;33974;-73
2023/12/28 07:02:38;;;;;;;37.92;25.42;;;;;;;0.43;100.00;101122.69;5607617;31;32765;-72
2023/12/28 07:05:41;;;;;;;38.72;24.40;;;;;;;0.40;100.00;101126.31;5608801;31;34926;-72
2023/12/28 07:08:45;;;;;;;38.13;24.48;;;;;;;0.38;100.00;101127.31;5609687;31;33311;-72
2023/12/28 07:11:49;;;;;;;36.00;24.33;;;;;;;0.48;100.00;101125.03;5609511;31;34036;-72
2023/12/28 07:14:51;;;;;;;35.63;24.02;;;;;;;0.50;100.00;101118.81;5595577;31;34186;-73
2023/12/28 07:17:55;;;;;;;40.85;28.48;;;;;;;0.53;100.00;101117.81;5608347;31;35515;-73
2023/12/28 07:21:00;;;;;;;37.53;23.65;;;;;;;0.56;100.00;101110.63;5608704;31;34040;-74
2023/12/28 07:24:03;;;;;;;35.75;23.67;;;;;;;0.60;100.00;101111.28;5609074;31;34357;-73
2023/12/28 07:27:06;;;;;;;36.70;24.37;;;;;;;0.66;100.00;101108.34;5609238;31;34038;-73
2023/12/28 07:30:10;;;;;;;40.45;24.77;;;;;;;0.73;100.00;101114.87;5609720;31;34165;-72
2023/12/28 07:33:14;;;;;;;35.22;23.00;;;;;;;0.71;100.00;101116.75;5609587;31;34010;-72
2023/12/28 07:36:21;;;;;;;35.90;23.70;;;;;;;0.98;100.00;101123.00;5609325;31;34268;-72
2023/12/28 07:39:23;;;;;;;36.97;24.08;;;;;;;1.14;100.00;101130.81;5609275;31;34194;-72
2023/12/28 07:42:26;;;;;;;33.05;23.42;;;;;;;1.18;100.00;101127.91;5608342;31;34649;-72
2023/12/28 07:45:29;;;;;;;36.80;22.42;;;;;;;1.30;100.00;101132.44;5609031;31;34877;-73
2023/12/28 07:48:32;;;;;;;34.67;22.75;;;;;;;1.27;100.00;101140.44;5609466;31;33973;-72
2023/12/28 07:51:36;;;;;;;32.85;22.90;;;;;;;1.25;100.00;101136.25;5609094;31;34220;-73
2023/12/28 07:54:39;;;;;;;34.47;23.38;;;;;;;1.28;100.00;101136.06;5608929;31;34201;-72
2023/12/28 07:57:42;;;;;;;32.80;22.73;;;;;;;1.32;100.00;101129.72;5608591;31;34259;-72
2023/12/28 08:00:46;;;;;;;31.08;22.45;;;;;;;1.39;100.00;101128.44;5608733;31;34786;-72
2023/12/28 08:04:04;;;;;;;32.13;22.08;;;;;;;1.48;100.00;101122.66;5608894;31;34011;-72
2023/12/28 08:07:08;;;;;;;29.58;20.92;;;;;;;1.55;100.00;101120.53;5608845;31;34086;-73
2023/12/28 08:10:11;;;;;;;32.45;22.05;;;;;;;1.62;100.00;101121.81;5609073;31;34871;-73
2023/12/28 08:13:15;;;;;;;34.05;22.42;;;;;;;1.65;100.00;101125.06;5608512;31;33976;-73
2023/12/28 08:16:21;;;;;;;31.42;22.08;;;;;;;1.72;100.00;101120.34;5608659;31;34150;-72
2023/12/28 08:19:25;;;;;;;34.47;21.67;;;;;;;1.80;100.00;101127.69;5609254;31;34676;-73
2023/12/28 08:22:35;;;;;;;31.77;22.62;;;;;;;1.85;100.00;101123.03;5608452;31;34385;-73
2023/12/28 08:25:38;;;;;;;30.90;21.15;;;;;;;1.91;100.00;101128.72;5608591;31;34032;-72
2023/12/28 08:28:42;;;;;;;31.48;21.33;;;;;;;1.96;100.00;101139.75;5608586;31;34437;-73
2023/12/28 08:31:45;;;;;;;32.78;21.95;;;;;;;2.12;100.00;101139.66;5608515;31;34118;-72
2023/12/28 08:34:50;;;;;;;31.80;22.98;;;;;;;2.29;100.00;101133.34;5608870;31;34250;-72
2023/12/28 08:37:56;;;;;;;33.88;23.12;;;;;;;2.34;100.00;101139.13;5607923;31;34001;-73
2023/12/28 08:40:59;;;;;;;32.92;22.80;;;;;;;2.39;100.00;101144.94;5608318;31;34319;-73
2023/12/28 08:44:02;;;;;;;28.33;22.40;;;;;;;2.52;100.00;101140.59;5608569;31;34004;-73
2023/12/28 08:47:06;;;;;;;30.55;21.75;;;;;;;2.70;100.00;101146.44;5608527;31;34048;-72
2023/12/28 08:50:09;;;;;;;30.10;22.52;;;;;;;2.62;100.00;101144.28;5608417;31;33937;-73
2023/12/28 08:53:12;;;;;;;33.88;22.27;;;;;;;2.64;100.00;101139.81;5608104;31;34670;-73
2023/12/28 08:56:22;;;;;;;33.45;23.52;;;;;;;2.75;100.00;101150.44;5607554;31;34116;-73
2023/12/28 08:59:25;;;;;;;31.42;22.75;;;;;;;2.83;100.00;101156.03;5608515;31;35487;-73
2023/12/28 09:02:30;;;;;;;33.72;22.83;;;;;;;2.93;100.00;101145.78;5608120;31;34276;-73
2023/12/28 09:05:34;;;;;;;32.95;22.95;;;;;;;2.96;100.00;101142.94;5594716;31;34732;-72
2023/12/28 09:08:43;;;;;;;31.48;22.55;;;;;;;3.00;100.00;101140.03;5607923;31;34405;-73
2023/12/28 09:11:47;;;;;;;32.90;22.45;;;;;;;3.15;100.00;101126.88;5607981;31;34980;-72
2023/12/28 09:14:52;;;;;;;28.85;22.50;;;;;;;3.19;100.00;101128.34;5607807;31;34181;-71
2023/12/28 09:17:56;;;;;;;35.13;23.12;;;;;;;3.25;100.00;101122.66;5607205;31;33939;-72
2023/12/28 09:21:01;;;;;;;32.03;21.58;;;;;;;3.33;100.00;101117.78;5594515;31;34336;-73
2023/12/28 09:24:04;;;;;;;31.52;21.15;;;;;;;3.39;100.00;101119.97;5607740;31;34790;-73
2023/12/28 09:27:07;;;;;;;33.00;21.02;;;;;;;3.47;100.00;101123.75;5607701;31;34758;-73
2023/12/28 09:30:11;;;;;;;34.00;21.42;;;;;;;3.52;100.00;101105.09;5607686;31;34921;-73
2023/12/28 09:33:16;;;;;;;29.25;20.77;;;;;;;3.54;100.00;101100.56;5607778;31;35071;-73
2023/12/28 09:36:23;;;;;;;31.42;21.35;;;;;;;3.70;100.00;101095.09;5607465;31;35034;-73
2023/12/28 09:39:27;;;;;;;36.20;21.90;;;;;;;3.74;100.00;101089.53;5607558;31;34040;-73
2023/12/28 09:42:43;;;;;;;30.40;21.25;;;;;;;3.85;100.00;101087.00;5607478;31;34361;-73
2023/12/28 09:45:48;;;;;;;29.17;22.23;;;;;;;3.87;100.00;101074.59;5607272;31;35083;-72
2023/12/28 09:48:53;;;;;;;36.75;21.85;;;;;;;3.97;100.00;101066.09;5606666;31;34512;-73
2023/12/28 09:52:00;;;;;;;32.55;21.23;;;;;;;4.08;100.00;101072.25;5606550;31;34129;-73
2023/12/28 09:55:04;;;;;;;31.98;20.83;;;;;;;4.16;100.00;101069.09;5607712;31;35143;-73
2023/12/28 09:58:09;;;;;;;29.27;21.25;;;;;;;4.21;100.00;101067.78;5607269;31;34756;-72
2023/12/28 10:01:15;;;;;;;31.45;21.25;;;;;;;4.28;100.00;101065.56;5607402;31;34763;-72
2023/12/28 10:04:20;;;;;;;32.97;20.90;;;;;;;4.40;100.00;101053.34;5607053;31;33269;-72
2023/12/28 10:07:24;;;;;;;30.15;20.15;;;;;;;4.49;100.00;101039.53;5606398;31;34822;-73
2023/12/28 10:10:29;;;;;;;31.15;20.90;;;;;;;4.61;100.00;101044.69;5606162;31;34162;-72
2023/12/28 10:13:33;;;;;;;28.77;20.52;;;;;;;4.63;100.00;101036.72;5606877;31;34354;-73
2023/12/28 10:16:40;;;;;;;29.67;21.12;;;;;;;4.69;100.00;101031.00;5606086;31;33957;-73
2023/12/28 10:19:47;;;;;;;32.28;20.98;;;;;;;4.70;100.00;101027.41;5606246;31;34014;-73
2023/12/28 10:22:54;;;;;;;31.58;20.92;;;;;;;4.77;100.00;101024.22;5607074;31;34756;-72
2023/12/28 10:25:58;;;;;;;32.25;21.62;;;;;;;4.85;100.00;101007.84;5606473;31;34247;-73
2023/12/28 10:29:05;;;;;;;30.15;20.80;;;;;;;4.95;100.00;101014.09;5606753;31;34711;-71
2023/12/28 10:32:11;;;;;;;34.95;21.77;;;;;;;5.01;100.00;101010.16;5606154;31;34596;-74
2023/12/28 10:35:16;;;;;;;34.08;21.25;;;;;;;5.04;100.00;101016.03;5606439;31;34096;-72
2023/12/28 10:38:20;;;;;;;31.67;20.95;;;;;;;5.22;100.00;101013.81;5608435;31;34753;-72
2023/12/28 10:41:29;;;;;;;32.55;21.95;;;;;;;5.25;100.00;101003.88;5609378;31;34089;-73
2023/12/28 10:44:43;;;;;;;29.67;21.02;;;;;;;5.39;100.00;101015.94;5608427;31;34210;-73
2023/12/28 10:48:04;;;;;;;30.20;21.73;;;;;;;5.49;100.00;100995.88;5609428;31;33975;-72
2023/12/28 10:51:10;;;;;;;29.70;19.95;;;;;;;5.62;100.00;100995.72;5608963;31;34774;-73
2023/12/28 10:54:25;;;;;;;33.63;22.10;;;;;;;5.70;100.00;100985.44;5608090;31;34087;-73
2023/12/28 10:57:46;;;;;;;28.55;20.80;;;;;;;5.73;100.00;100990.47;5609039;31;34614;-72
2023/12/28 11:00:58;;;;;;;;;;;;;;;5.76;100.00;100986.75;5609373;31;34777;-72
2023/12/28 11:04:27;;;;;;;34.90;21.05;;;;;;;5.78;100.00;100980.41;5608994;31;34466;-74
2023/12/28 11:07:32;;;;;;;34.13;21.48;;;;;;;5.94;100.00;100980.88;5608342;31;34674;-71
2023/12/28 11:10:38;;;;;;;32.92;20.88;;;;;;;6.08;100.00;100966.59;5609280;31;34699;-72
2023/12/28 11:13:44;;;;;;;34.58;20.40;;;;;;;6.21;100.00;100964.62;5609220;31;34143;-72
2023/12/28 11:16:48;;;;;;;30.27;20.70;;;;;;;6.20;100.00;100957.69;5608600;31;34793;-72
2023/12/28 11:19:55;;;;;;;30.62;20.88;;;;;;;6.24;100.00;100953.03;5608446;31;34114;-72
2023/12/28 11:22:59;;;;;;;30.45;21.10;;;;;;;6.31;100.00;100956.81;5609282;31;34784;-73
2023/12/28 11:26:03;;;;;;;30.73;21.10;;;;;;;6.39;100.00;100942.03;5609185;31;34849;-73
2023/12/28 11:29:06;;;;;;;34.97;21.12;;;;;;;6.41;100.00;100942.75;5608019;31;34841;-73
2023/12/28 11:32:10;;;;;;;35.97;21.15;;;;;;;6.52;100.00;100944.50;5608794;31;34817;-72
2023/12/28 11:35:14;;;;;;;29.37;20.80;;;;;;;6.58;100.00;100933.44;5608655;31;34894;-72
2023/12/28 11:38:18;;;;;;;33.45;20.48;;;;;;;6.55;100.00;100926.62;5608595;31;34165;-73
2023/12/28 11:41:21;;;;;;;31.42;20.55;;;;;;;6.54;100.00;100927.56;5609127;31;34755;-72
2023/12/28 11:44:28;;;;;;;27.62;19.92;;;;;;;6.60;100.00;100918.31;5608153;31;34037;-73
2023/12/28 11:47:31;;;;;;;29.42;20.10;;;;;;;6.82;100.00;100906.81;5608225;31;34360;-73
2023/12/28 11:50:35;;;;;;;28.23;19.10;;;;;;;6.96;100.00;100909.94;5608599;31;33952;-73
2023/12/28 11:53:41;;;;;;;30.15;20.17;;;;;;;7.08;100.00;100901.91;5608707;31;34069;-73
2023/12/28 11:56:50;;;;;;;31.00;19.25;;;;;;;7.17;100.00;100895.84;5608009;31;35126;-71
2023/12/28 11:59:57;;;;;;;29.75;19.30;;;;;;;7.30;100.00;100892.00;5607839;31;34934;-72
2023/12/28 12:03:02;;;;;;;33.42;19.10;;;;;;;7.31;100.00;100890.22;5608523;31;34193;-73
2023/12/28 12:06:06;;;;;;;30.05;19.33;;;;;;;7.18;100.00;100879.03;5608604;31;34405;-72
2023/12/28 12:09:16;;;;;;;33.80;20.05;;;;;;;7.22;100.00;100880.44;5608383;31;35122;-72
2023/12/28 12:12:19;;;;;;;26.77;19.37;;;;;;;7.40;100.00;100882.31;5607780;31;35043;-72
2023/12/28 12:15:22;;;;;;;29.05;18.65;;;;;;;7.65;100.00;100880.97;5608477;31;34371;-73
2023/12/28 12:18:29;;;;;;;34.70;20.12;;;;;;;7.95;100.00;100877.37;5608268;31;35005;-73
2023/12/28 12:21:36;;;;;;;28.00;18.58;;;;;;;8.08;100.00;100875.31;5607848;31;34169;-72
2023/12/28 12:24:42;;;;;;;27.10;18.25;;;;;;;7.99;100.00;100865.56;5608562;31;34169;-72
2023/12/28 12:27:45;;;;;;;25.75;18.27;;;;;;;8.20;100.00;100868.06;5608670;31;33705;-73
2023/12/28 12:30:56;;;;;;;30.37;18.65;;;;;;;8.16;100.00;100864.88;5608610;31;34158;-73
2023/12/28 12:34:03;;;;;;;28.60;18.15;;;;;;;8.16;100.00;100870.16;5608393;31;34300;-74
2023/12/28 12:37:10;;;;;;;27.92;18.00;;;;;;;8.25;100.00;100866.66;5607842;31;33973;-73
2023/12/28 12:40:15;;;;;;;24.65;17.20;;;;;;;8.39;100.00;100868.06;5608735;31;34127;-73
2023/12/28 12:43:19;;;;;;;25.55;17.55;;;;;;;8.03;100.00;100855.56;5608285;31;34112;-73
2023/12/28 12:46:23;;;;;;;25.80;17.50;;;;;;;7.83;100.00;100863.50;5608700;31;34774;-74
2023/12/28 12:49:27;;;;;;;28.10;18.00;;;;;;;7.87;100.00;100869.31;5608409;31;35054;-73
2023/12/28 12:52:31;;;;;;;27.75;17.05;;;;;;;7.93;100.00;100875.84;5608035;31;33992;-73
2023/12/28 12:55:38;;;;;;;27.37;17.15;;;;;;;7.96;100.00;100873.75;5607621;31;34599;-71
2023/12/28 12:58:41;;;;;;;26.05;17.35;;;;;;;7.90;100.00;100866.38;5608486;31;34907;-72
2023/12/28 13:01:49;;;;;;;24.27;17.50;;;;;;;7.82;100.00;100860.97;5607947;31;34064;-72
2023/12/28 13:04:55;;;;;;;27.87;18.48;;;;;;;7.72;100.00;100855.69;5606571;31;34743;-72
2023/12/28 13:07:58;;;;;;;28.83;17.52;;;;;;;7.70;100.00;100848.84;5607391;31;34121;-71
2023/12/28 13:11:01;;;;;;;25.88;16.83;;;;;;;7.70;100.00;100852.34;5607300;31;34658;-72
2023/12/28 13:14:07;;;;;;;21.98;16.23;;;;;;;7.71;100.00;100851.38;5608092;31;34078;-72
2023/12/28 13:17:13;;;;;;;25.12;16.42;;;;;;;7.65;100.00;100845.81;5607852;31;34149;-73
2023/12/28 13:20:18;;;;;;;24.92;17.42;;;;;;;7.51;100.00;100844.38;5607766;31;34287;-72
2023/12/28 13:23:22;;;;;;;26.17;16.08;;;;;;;7.53;100.00;100837.19;5607870;31;34390;-72
2023/12/28 13:26:25;;;;;;;27.95;17.35;;;;;;;7.43;100.00;100845.09;5607244;31;33986;-73
2023/12/28 13:29:29;;;;;;;26.23;17.62;;;;;;;7.43;100.00;100849.53;5607922;31;33964;-72
2023/12/28 13:32:33;;;;;;;25.08;16.67;;;;;;;7.45;100.00;100854.69;5607820;31;34083;-72
2023/12/28 13:35:44;;;;;;;26.00;17.23;;;;;;;7.49;100.00;100842.88;5606910;31;34018;-72
2023/12/28 13:38:48;;;;;;;24.05;17.52;;;;;;;7.47;100.00;100855.34;5607375;31;34227;-72
2023/12/28 13:41:50;;;;;;;27.10;17.83;;;;;;;7.36;100.00;100859.78;5607807;31;34643;-72
2023/12/28 13:44:54;;;;;;;28.75;18.92;;;;;;;7.41;100.00;100852.28;5607418;31;34271;-71
2023/12/28 13:47:57;;;;;;;26.20;17.77;;;;;;;7.39;100.00;100843.69;5607460;31;34815;-72
2023/12/28 13:51:00;;;;;;;31.08;18.60;;;;;;;7.30;100.00;100846.31;5607376;31;35128;-72
2023/12/28 13:54:04;;;;;;;24.60;18.05;;;;;;;7.12;100.00;100861.09;5607671;31;34066;-71
2023/12/28 13:57:13;;;;;;;28.27;17.80;;;;;;;7.07;100.00;100868.59;5607555;31;34061;-72
2023/12/28 14:00:17;;;;;;;25.60;17.30;;;;;;;7.11;100.00;100865.56;5606549;31;32679;-72
2023/12/28 14:03:20;;;;;;;24.83;16.83;;;;;;;7.23;100.00;100863.63;5606115;31;34263;-71